Time;durP1;ratioP1;P1;durP2;ratioP2;P2;SDS_P1;SDS_P2;PMS_P1;PMS_P2;Temp;Humidity;BMP_temperature;BMP_pressure;BME280_temperature;BME280_humidity;BME280_pressure;Samples;Min_cycle;Max_cycle;Signal;HPM_P1;HPM_P2
2022/04/17 00:02:01;;;;;;;4.75;3.03;;;;;;;7.04;44.81;103176.69;5040018;28;20115;-64
2022/04/17 00:04:27;;;;;;;4.10;2.80;;;;;;;7.03;45.27;103188.91;5037750;28;20060;-63
2022/04/17 00:06:53;;;;;;;4.18;2.80;;;;;;;7.03;45.17;103185.44;5039059;28;20032;-64
2022/04/17 00:09:19;;;;;;;4.43;2.88;;;;;;;7.01;45.32;103183.69;5038277;28;20450;-64
2022/04/17 00:11:45;;;;;;;3.95;2.78;;;;;;;6.99;45.38;103166.25;5040182;28;20104;-64
2022/04/17 00:14:10;;;;;;;6.38;2.90;;;;;;;7.00;45.13;103171.50;5041301;28;20440;-63
2022/04/17 00:16:36;;;;;;;4.75;2.65;;;;;;;6.99;45.37;103168.84;5041716;28;20036;-64
2022/04/17 00:19:02;;;;;;;6.15;2.88;;;;;;;6.99;45.13;103164.50;5041341;28;20389;-64
2022/04/17 00:21:28;;;;;;;4.32;2.88;;;;;;;6.98;45.34;103162.75;5040321;28;20135;-64
2022/04/17 00:23:53;;;;;;;3.97;3.08;;;;;;;6.98;45.49;103162.75;5038569;28;20135;-63
2022/04/17 00:26:19;;;;;;;5.32;2.75;;;;;;;6.96;45.26;103154.03;5039766;28;20033;-63
2022/04/17 00:28:45;;;;;;;5.60;3.38;;;;;;;6.94;45.44;103162.78;5035348;28;20033;-63
2022/04/17 00:31:10;;;;;;;5.95;3.38;;;;;;;6.89;45.43;103162.78;5038301;28;20029;-63
2022/04/17 00:33:36;;;;;;;4.40;3.00;;;;;;;6.86;45.56;103152.34;5037678;28;20025;-64
2022/04/17 00:36:01;;;;;;;7.18;3.20;;;;;;;6.84;45.70;103156.72;5039320;28;20092;-63
2022/04/17 00:38:27;;;;;;;6.00;3.20;;;;;;;6.79;45.88;103161.06;5038903;28;20068;-63
2022/04/17 00:40:55;;;;;;;5.68;2.95;;;;;;;6.73;45.71;103155.88;5038269;28;20091;-63
2022/04/17 00:43:26;;;;;;;4.60;3.30;;;;;;;6.64;45.73;103152.41;5036261;28;20534;-63
2022/04/17 00:45:53;;;;;;;5.47;3.17;;;;;;;6.54;45.86;103141.06;5036162;28;20026;-64
2022/04/17 00:48:19;;;;;;;5.13;3.05;;;;;;;6.50;45.98;103143.72;5036212;28;20482;-64
2022/04/17 00:50:46;;;;;;;3.83;2.85;;;;;;;6.45;46.12;103145.44;5038866;28;20047;-63
2022/04/17 00:53:12;;;;;;;4.13;2.95;;;;;;;6.39;45.80;103142.00;5039377;28;20033;-64
2022/04/17 00:55:40;;;;;;;5.20;3.53;;;;;;;6.36;46.08;103138.50;5037683;28;20056;-64
2022/04/17 00:58:05;;;;;;;4.47;3.05;;;;;;;6.32;46.30;103135.00;5021707;28;20026;-63
2022/04/17 01:00:33;;;;;;;4.10;2.85;;;;;;;6.29;46.12;103135.00;5036740;28;20037;-63
2022/04/17 01:03:01;;;;;;;6.07;3.22;;;;;;;6.29;46.42;103140.25;5038729;28;20559;-64
2022/04/17 01:05:27;;;;;;;5.10;3.30;;;;;;;6.28;46.38;103130.66;5040293;28;20127;-63
2022/04/17 01:07:53;;;;;;;4.47;3.30;;;;;;;6.25;46.65;103131.53;5038344;28;20776;-64
2022/04/17 01:10:19;;;;;;;4.30;3.22;;;;;;;6.24;46.68;103131.56;5037851;28;20055;-64
2022/04/17 01:12:45;;;;;;;5.68;3.55;;;;;;;6.17;46.66;103130.69;5038731;28;20033;-64
2022/04/17 01:15:11;;;;;;;5.03;3.50;;;;;;;6.12;47.09;103124.59;5039262;28;20912;-64
2022/04/17 01:17:36;;;;;;;3.67;2.72;;;;;;;6.15;46.81;103126.31;5044126;28;20079;-63
2022/04/17 01:20:03;;;;;;;5.30;2.90;;;;;;;6.14;46.66;103122.84;5041795;28;20036;-64
2022/04/17 01:22:29;;;;;;;4.72;3.30;;;;;;;6.13;46.73;103123.72;5043595;28;20123;-63
2022/04/17 01:27:38;;;;;;;4.05;3.17;;;;;;;6.05;46.83;103118.50;5040187;28;20047;-63
2022/04/17 01:30:04;;;;;;;5.38;3.50;;;;;;;6.02;46.86;103123.72;5042552;28;20041;-63
2022/04/17 01:32:30;;;;;;;3.50;2.70;;;;;;;5.99;47.08;103120.22;5044445;28;20156;-64
2022/04/17 01:34:55;;;;;;;4.22;2.80;;;;;;;5.96;46.84;103126.31;5041358;28;20076;-64
2022/04/17 01:37:21;;;;;;;4.05;2.67;;;;;;;5.97;47.09;103124.56;5041610;28;20032;-64
2022/04/17 01:39:47;;;;;;;5.47;3.00;;;;;;;5.99;46.81;103130.66;5039241;28;20444;-63
2022/04/17 01:42:13;;;;;;;3.70;3.05;;;;;;;6.02;47.04;103126.31;5042866;28;20033;-64
2022/04/17 01:44:39;;;;;;;4.00;3.13;;;;;;;6.05;46.89;103126.34;5042336;28;20044;-64
2022/04/17 01:47:05;;;;;;;5.18;3.10;;;;;;;6.05;46.69;103125.47;5042137;28;20029;-63
2022/04/17 01:49:31;;;;;;;4.38;3.40;;;;;;;6.06;46.90;103120.22;5041800;28;20044;-63
2022/04/17 01:51:57;;;;;;;4.13;2.90;;;;;;;6.08;46.55;103115.88;5040849;28;20021;-64
2022/04/17 01:54:24;;;;;;;5.30;3.67;;;;;;;6.10;46.68;103111.53;5038235;28;20045;-63
2022/04/17 01:56:51;;;;;;;4.82;3.15;;;;;;;6.10;47.02;103108.91;5040729;28;20046;-63
2022/04/17 01:59:18;;;;;;;4.65;2.85;;;;;;;6.15;46.92;103121.09;5040420;28;20041;-63
2022/04/17 02:01:44;;;;;;;4.93;3.20;;;;;;;6.18;47.18;103113.25;5040634;28;20036;-63
2022/04/17 02:04:11;;;;;;;5.72;3.35;;;;;;;6.20;46.97;103116.72;5041377;28;20049;-64
2022/04/17 02:06:40;;;;;;;5.45;3.50;;;;;;;6.20;46.94;103120.22;5040299;28;20040;-63
2022/04/17 02:09:09;;;;;;;5.28;3.42;;;;;;;6.20;47.12;103120.22;5042417;28;20552;-63
2022/04/17 02:11:35;;;;;;;6.10;3.53;;;;;;;6.21;47.46;103115.88;5041616;28;20477;-63
2022/04/17 02:14:00;;;;;;;4.38;3.53;;;;;;;6.21;47.28;103110.63;5041005;28;20096;-63
2022/04/17 02:16:26;;;;;;;4.25;3.05;;;;;;;6.21;47.49;103113.25;5041894;28;20503;-64
2022/04/17 02:18:52;;;;;;;6.55;3.42;;;;;;;6.21;47.29;103108.03;5042269;28;20040;-63
2022/04/17 02:21:19;;;;;;;4.85;3.45;;;;;;;6.19;47.22;103107.16;5040204;28;20044;-63
2022/04/17 02:23:45;;;;;;;5.40;3.60;;;;;;;6.14;47.37;103101.94;5039043;28;20036;-63
2022/04/17 02:26:12;;;;;;;4.30;3.20;;;;;;;6.12;47.55;103097.59;5036467;28;20032;-63
2022/04/17 02:28:40;;;;;;;5.93;3.63;;;;;;;6.12;47.34;103093.22;5041496;28;20033;-64
2022/04/17 02:31:08;;;;;;;4.00;3.22;;;;;;;6.10;47.40;103089.72;5039030;28;20029;-64
2022/04/17 02:33:34;;;;;;;6.93;3.95;;;;;;;6.07;47.54;103080.16;5039888;28;20032;-63
2022/04/17 02:36:00;;;;;;;5.13;3.85;;;;;;;6.05;47.52;103078.44;5041548;28;20028;-63
2022/04/17 02:38:25;;;;;;;5.20;3.55;;;;;;;6.05;47.85;103073.19;5038384;28;20465;-63
2022/04/17 02:40:52;;;;;;;5.57;3.40;;;;;;;6.03;47.72;103070.56;5040431;28;20068;-64
2022/04/17 02:43:17;;;;;;;4.07;3.60;;;;;;;6.02;47.86;103068.81;5041921;28;20051;-64
2022/04/17 02:45:44;;;;;;;5.35;3.45;;;;;;;6.00;47.88;103067.09;5040162;28;20397;-64
2022/04/17 02:48:09;;;;;;;4.47;3.53;;;;;;;5.99;47.70;103073.16;5041002;28;20483;-64
2022/04/17 02:50:35;;;;;;;5.07;3.38;;;;;;;5.98;47.62;103067.03;5042182;28;20083;-64
2022/04/17 02:53:00;;;;;;;4.93;3.55;;;;;;;5.98;47.78;103060.97;5038545;28;20037;-63
2022/04/17 02:55:26;;;;;;;5.32;3.30;;;;;;;5.95;47.75;103059.22;5039900;28;20045;-63
2022/04/17 02:57:52;;;;;;;4.95;3.33;;;;;;;5.94;47.86;103060.09;5040298;28;20064;-63
2022/04/17 03:00:18;;;;;;;5.10;3.60;;;;;;;5.93;47.94;103066.19;5040643;28;20123;-64
2022/04/17 03:05:36;;;;;;;4.00;3.20;;;;;;;5.87;47.70;103055.75;5043299;28;20580;-63
2022/04/17 03:08:11;;;;;;;4.88;3.08;;;;;;;5.83;47.89;103056.59;5041354;28;20171;-64
2022/04/17 03:10:39;;;;;;;4.85;3.28;;;;;;;5.83;48.11;103052.25;5038562;28;20398;-63
2022/04/17 03:13:05;;;;;;;4.68;3.33;;;;;;;5.80;48.32;103055.75;5027422;28;20037;-63
2022/04/17 03:15:37;;;;;;;5.30;3.58;;;;;;;5.82;48.22;103057.50;5038944;28;20045;-63
2022/04/17 03:18:04;;;;;;;5.10;3.45;;;;;;;5.76;48.37;103059.25;5039794;28;20037;-63
2022/04/17 03:20:30;;;;;;;5.75;3.40;;;;;;;5.65;48.45;103055.75;5037788;28;20464;-63
2022/04/17 03:22:56;;;;;;;4.93;3.35;;;;;;;5.60;48.68;103057.50;5039891;28;20580;-63
2022/04/17 03:25:21;;;;;;;6.72;3.78;;;;;;;5.58;48.67;103049.66;5039996;28;20057;-63
2022/04/17 03:27:48;;;;;;;5.40;3.67;;;;;;;5.54;48.92;103049.66;5040695;28;20060;-63
2022/04/17 03:30:15;;;;;;;4.78;3.20;;;;;;;5.53;48.93;103053.13;5039198;28;20029;-63
2022/04/17 03:32:44;;;;;;;5.10;3.55;;;;;;;5.54;48.88;103041.81;5040039;28;20083;-63
2022/04/17 03:35:14;;;;;;;5.03;3.80;;;;;;;5.57;48.50;103039.22;5038163;28;20052;-63
2022/04/17 03:37:43;;;;;;;6.30;3.42;;;;;;;5.58;48.74;103041.84;5037034;28;20396;-63
2022/04/17 03:40:13;;;;;;;5.38;3.40;;;;;;;5.62;48.48;103038.34;5038171;28;20227;-63
2022/04/17 03:42:40;;;;;;;4.35;3.40;;;;;;;5.66;48.44;103047.06;5039752;28;20043;-63
2022/04/17 03:45:07;;;;;;;4.53;3.17;;;;;;;5.67;48.39;103038.34;5038033;28;20044;-63
2022/04/17 03:47:33;;;;;;;4.45;3.28;;;;;;;5.68;48.44;103040.06;5037445;28;20094;-64
2022/04/17 03:49:59;;;;;;;3.97;3.30;;;;;;;5.65;48.63;103040.94;5040048;28;20248;-64
2022/04/17 03:52:25;;;;;;;4.00;3.50;;;;;;;5.64;48.48;103041.81;5036418;28;20481;-64
2022/04/17 03:54:50;;;;;;;4.85;3.40;;;;;;;5.62;48.73;103042.69;5035775;28;20584;-63
2022/04/17 03:57:16;;;;;;;7.18;3.40;;;;;;;5.61;48.74;103046.19;5039145;28;20558;-63
2022/04/17 03:59:41;;;;;;;5.32;3.50;;;;;;;5.62;48.85;103040.09;5041501;28;20048;-63
2022/04/17 04:02:07;;;;;;;5.10;3.40;;;;;;;5.61;48.65;103047.03;5037401;28;20170;-64
2022/04/17 04:04:33;;;;;;;7.38;3.38;;;;;;;5.58;48.83;103035.72;5039965;28;20536;-64
2022/04/17 04:06:59;;;;;;;6.50;4.50;;;;;;;5.57;48.99;103034.88;5039662;28;20393;-63
2022/04/17 04:09:24;;;;;;;4.68;3.42;;;;;;;5.55;48.88;103034.00;5038428;28;20036;-63
2022/04/17 04:11:50;;;;;;;6.85;3.72;;;;;;;5.47;49.21;103038.31;5038679;28;20401;-63
2022/04/17 04:14:16;;;;;;;6.18;4.05;;;;;;;5.43;49.07;103032.25;5038434;28;20096;-63
2022/04/17 04:16:41;;;;;;;4.13;3.55;;;;;;;5.43;49.27;103029.63;5038041;28;20497;-63
2022/04/17 04:19:07;;;;;;;6.97;4.30;;;;;;;5.45;49.27;103042.66;5040027;28;20036;-62
2022/04/17 04:21:32;;;;;;;4.85;3.92;;;;;;;5.47;48.99;103031.38;5037082;28;20090;-63
2022/04/17 04:23:58;;;;;;;4.20;3.30;;;;;;;5.49;48.87;103036.59;5040637;28;20500;-63
2022/04/17 04:26:23;;;;;;;7.10;4.50;;;;;;;5.47;49.07;103028.78;5040972;28;20500;-63
2022/04/17 04:28:49;;;;;;;6.35;3.92;;;;;;;5.45;48.92;103034.84;5038279;28;20068;-63
2022/04/17 04:31:15;;;;;;;4.07;3.47;;;;;;;5.43;49.02;103041.81;5038257;28;20090;-63
2022/04/17 04:33:42;;;;;;;5.57;3.80;;;;;;;5.40;49.10;103037.44;5038348;28;21598;-63
2022/04/17 04:36:11;;;;;;;6.15;4.07;;;;;;;5.41;49.32;103039.19;5038840;28;20017;-63
2022/04/17 04:38:37;;;;;;;9.82;4.72;;;;;;;5.41;49.18;103031.34;5040366;28;20040;-63
2022/04/17 04:41:03;;;;;;;8.60;4.38;;;;;;;5.44;49.28;103040.97;5039512;28;20112;-63
2022/04/17 04:43:29;;;;;;;5.90;4.13;;;;;;;5.47;49.27;103030.50;5038128;28;20073;-63
2022/04/17 04:46:07;;;;;;;8.10;4.47;;;;;;;5.51;49.28;103029.63;5038546;28;20064;-63
2022/04/17 04:51:24;;;;;;;8.20;4.82;;;;;;;5.51;49.47;103039.22;5039980;28;20048;-63
2022/04/17 04:53:49;;;;;;;5.65;3.88;;;;;;;5.52;49.20;103038.34;5039376;28;20067;-64
2022/04/17 04:56:20;;;;;;;7.95;4.32;;;;;;;5.50;49.59;103033.09;5040794;28;20060;-63
2022/04/17 04:58:46;;;;;;;;;;;;;;;5.50;49.28;103030.50;5044118;28;20033;-64
2022/04/17 05:01:12;;;;;;;5.60;3.60;;;;;;;5.51;49.29;103028.78;5042850;28;19920;-63
2022/04/17 05:03:38;;;;;;;7.13;4.57;;;;;;;5.52;49.25;103027.91;5043627;28;20033;-63
2022/04/17 05:06:04;;;;;;;8.13;4.70;;;;;;;5.52;49.49;103027.91;5043617;28;20032;-63
2022/04/17 05:08:30;;;;;;;5.78;4.20;;;;;;;5.51;49.47;103034.00;5043014;28;20039;-63
2022/04/17 05:10:56;;;;;;;6.45;4.60;;;;;;;5.49;49.74;103026.16;5043253;28;20037;-63
2022/04/17 05:13:22;;;;;;;6.95;4.70;;;;;;;5.51;49.65;103037.47;5043708;28;20477;-63
2022/04/17 05:15:47;;;;;;;6.05;4.30;;;;;;;5.54;49.61;103029.63;5042705;28;20049;-63
2022/04/17 05:18:13;;;;;;;6.50;4.55;;;;;;;5.55;49.56;103025.28;5044188;28;20034;-63
2022/04/17 05:20:39;;;;;;;6.82;4.55;;;;;;;5.57;49.57;103027.03;5044453;28;20025;-62
2022/04/17 05:23:19;;;;;;;8.13;5.05;;;;;;;5.57;49.58;103033.97;5043999;28;20040;-64
2022/04/17 05:25:47;;;;;;;5.82;4.55;;;;;;;5.57;49.62;103028.75;5042870;28;20033;-64
2022/04/17 05:28:14;;;;;;;6.85;4.43;;;;;;;5.61;49.72;103027.91;5044837;28;20045;-63
2022/04/17 05:30:40;;;;;;;5.43;4.07;;;;;;;5.67;49.43;103030.53;5044025;28;20052;-64
2022/04/17 05:33:06;;;;;;;5.57;4.03;;;;;;;5.73;49.64;103030.50;5025125;28;20393;-63
2022/04/17 05:35:31;;;;;;;7.03;4.32;;;;;;;5.77;49.53;103032.25;5032476;28;20132;-64
2022/04/17 05:37:57;;;;;;;6.68;3.75;;;;;;;5.82;49.25;103028.75;5043236;28;20469;-63
2022/04/17 05:40:22;;;;;;;5.57;4.07;;;;;;;5.87;49.47;103024.38;5043227;28;20123;-64
2022/04/17 05:42:48;;;;;;;6.25;3.90;;;;;;;5.93;49.34;103021.78;5043401;28;20514;-64
2022/04/17 05:45:13;;;;;;;5.78;4.10;;;;;;;6.02;49.30;103023.53;5032363;28;20045;-63
2022/04/17 05:47:39;;;;;;;5.95;3.72;;;;;;;6.04;49.10;103020.03;5044214;28;20120;-63
2022/04/17 05:50:05;;;;;;;6.30;3.60;;;;;;;6.06;49.00;103018.28;5044236;28;20385;-63
2022/04/17 05:52:31;;;;;;;5.90;3.72;;;;;;;6.07;49.13;103025.25;5042009;28;20504;-64
2022/04/17 05:54:57;;;;;;;5.13;3.40;;;;;;;6.12;49.45;103016.56;5029192;28;20057;-64
2022/04/17 05:57:23;;;;;;;7.00;3.97;;;;;;;6.16;49.05;103019.16;5044341;28;20029;-63
2022/04/17 05:59:48;;;;;;;6.53;3.60;;;;;;;6.22;49.28;103023.50;5042787;28;20036;-64
2022/04/17 06:02:15;;;;;;;6.13;3.65;;;;;;;6.28;49.13;103013.00;5042087;28;20194;-64
2022/04/17 06:04:41;;;;;;;5.93;3.50;;;;;;;6.38;48.98;103016.44;5042665;28;20036;-63
2022/04/17 06:07:06;;;;;;;6.10;3.55;;;;;;;6.40;48.69;103012.97;5036919;28;20037;-64
2022/04/17 06:09:32;;;;;;;4.65;3.30;;;;;;;6.43;48.73;103012.09;5041392;28;20602;-63
2022/04/17 06:11:57;;;;;;;4.25;3.28;;;;;;;6.46;48.46;103013.81;5041793;28;20061;-63
2022/04/17 06:14:23;;;;;;;4.63;3.20;;;;;;;6.45;48.54;103007.72;5040013;28;21543;-64
2022/04/17 06:16:48;;;;;;;4.22;3.10;;;;;;;6.48;48.46;103009.44;5044336;28;20462;-63
2022/04/17 06:19:14;;;;;;;4.15;3.50;;;;;;;6.51;48.62;103005.06;5039417;28;20053;-63
2022/04/17 06:21:40;;;;;;;5.35;3.50;;;;;;;6.52;48.52;102998.94;5041255;28;20252;-64
2022/04/17 06:24:06;;;;;;;5.03;3.60;;;;;;;6.49;48.50;102996.38;5038243;28;20025;-63
2022/04/17 06:26:34;;;;;;;4.47;3.17;;;;;;;6.50;48.78;102994.63;5042019;28;20029;-64
2022/04/17 06:29:07;;;;;;;5.70;3.38;;;;;;;6.52;48.77;102987.63;5041635;28;20033;-64
2022/04/17 06:31:33;;;;;;;5.30;3.53;;;;;;;6.59;49.05;102991.94;5022048;28;20040;-64
2022/04/17 06:33:58;;;;;;;5.65;3.42;;;;;;;6.68;48.92;102988.41;5039881;28;20045;-64
2022/04/17 06:36:24;;;;;;;5.60;3.38;;;;;;;6.74;48.95;102987.50;5039900;28;20492;-64
2022/04/17 06:38:49;;;;;;;6.35;4.18;;;;;;;6.83;48.72;102984.84;5040007;28;20079;-64
2022/04/17 06:41:15;;;;;;;4.53;3.50;;;;;;;6.89;48.66;102990.03;5041237;28;20339;-64
2022/04/17 06:43:40;;;;;;;4.18;3.03;;;;;;;6.96;48.72;102986.53;5039715;28;20401;-64
2022/04/17 06:46:06;;;;;;;4.35;3.28;;;;;;;7.04;48.20;102989.09;5039231;28;20103;-64
2022/04/17 06:48:31;;;;;;;6.13;3.22;;;;;;;7.10;48.04;102996.03;5039572;28;20041;-64
2022/04/17 06:50:57;;;;;;;3.22;2.90;;;;;;;7.14;48.11;102995.97;5022720;28;20038;-64
2022/04/17 06:53:23;;;;;;;6.25;2.95;;;;;;;7.19;48.14;102997.72;5024379;28;20034;-64
2022/04/17 06:55:49;;;;;;;4.50;2.80;;;;;;;7.26;47.60;102983.69;5039869;28;20068;-64
2022/04/17 06:58:15;;;;;;;5.63;3.00;;;;;;;7.33;47.67;102986.22;5041320;28;20421;-64
2022/04/17 07:00:41;;;;;;;3.92;2.92;;;;;;;7.43;47.46;102996.66;5038279;28;20147;-64
2022/04/17 07:03:07;;;;;;;3.20;2.55;;;;;;;7.49;47.11;102999.19;5037884;28;20560;-64
2022/04/17 07:05:32;;;;;;;4.32;2.97;;;;;;;7.57;47.49;102992.16;5040059;28;20187;-64
2022/04/17 07:08:00;;;;;;;6.55;3.00;;;;;;;7.67;47.22;102994.69;5041731;28;20475;-64
2022/04/17 07:10:27;;;;;;;5.13;2.88;;;;;;;7.74;46.98;102988.53;5037665;28;20037;-65
2022/04/17 07:12:53;;;;;;;4.47;2.70;;;;;;;7.80;46.91;102984.97;5040713;28;20931;-64
2022/04/17 07:15:22;;;;;;;5.97;3.83;;;;;;;7.91;47.02;102994.47;5033585;28;20037;-64
2022/04/17 07:17:48;;;;;;;6.90;3.83;;;;;;;7.99;46.67;102993.50;5040651;28;20453;-64
2022/04/17 07:20:15;;;;;;;6.35;4.15;;;;;;;8.08;46.80;102988.16;5040983;28;20027;-64
2022/04/17 07:22:41;;;;;;;5.05;2.83;;;;;;;8.15;46.84;102987.19;5038747;28;20119;-64
2022/04/17 07:25:07;;;;;;;4.30;3.03;;;;;;;8.20;46.78;102974.91;5040260;28;20162;-64
2022/04/17 07:27:38;;;;;;;5.13;3.20;;;;;;;8.26;46.66;102979.22;5041646;28;20079;-64
2022/04/17 07:30:13;;;;;;;3.47;2.88;;;;;;;8.29;46.79;102973.06;5041537;28;20061;-64
2022/04/17 07:32:50;;;;;;;5.00;2.92;;;;;;;8.31;47.26;102971.28;5040643;28;20116;-64
2022/04/17 07:35:17;;;;;;;4.82;3.00;;;;;;;8.33;47.44;102972.13;5022366;28;20042;-64
2022/04/17 07:37:55;;;;;;;5.90;3.05;;;;;;;8.37;47.56;102965.97;5042370;28;20029;-70
2022/04/17 07:40:25;;;;;;;4.35;3.00;;;;;;;8.38;47.60;102965.09;5035012;28;20036;-65
2022/04/17 07:42:52;;;;;;;5.93;3.40;;;;;;;8.42;47.52;102950.16;5036949;28;20083;-66
2022/04/17 07:45:18;;;;;;;4.43;3.13;;;;;;;8.48;47.65;102953.59;5041457;28;20035;-66
2022/04/17 07:47:44;;;;;;;6.03;3.55;;;;;;;8.53;47.66;102946.53;5042099;28;20024;-66
2022/04/17 07:50:13;;;;;;;6.97;3.20;;;;;;;8.57;47.69;102949.09;5041031;28;20091;-66
2022/04/17 07:52:42;;;;;;;6.88;3.70;;;;;;;8.62;47.97;102942.03;5021663;28;20040;-66
2022/04/17 07:55:10;;;;;;;5.40;3.17;;;;;;;8.63;48.21;102938.53;5040780;28;20052;-66
2022/04/17 08:00:21;;;;;;;4.68;3.40;;;;;;;8.80;48.57;102941.78;5039467;28;20128;-66
2022/04/17 08:03:08;;;;;;;4.90;3.70;;;;;;;8.82;48.29;102932.13;5042095;28;20366;-66
2022/04/17 08:05:37;;;;;;;6.05;3.78;;;;;;;8.83;48.76;102927.72;5039304;28;20037;-66
2022/04/17 08:08:03;;;;;;;6.28;3.70;;;;;;;8.89;48.65;102921.50;5023430;28;20026;-65
2022/04/17 08:10:29;;;;;;;6.75;4.18;;;;;;;9.00;48.85;102924.81;5037782;28;20033;-66
2022/04/17 08:12:54;;;;;;;4.80;3.42;;;;;;;9.13;48.36;102925.50;5039805;28;20036;-67
2022/04/17 08:15:19;;;;;;;5.50;3.85;;;;;;;9.24;48.08;102925.34;5040889;28;20085;-67
2022/04/17 08:17:45;;;;;;;5.65;3.97;;;;;;;9.35;47.98;102928.63;5039820;28;20063;-67
2022/04/17 08:20:10;;;;;;;5.55;3.80;;;;;;;9.47;48.03;102930.19;5040018;28;20132;-67
2022/04/17 08:22:36;;;;;;;5.93;3.83;;;;;;;9.56;48.08;102929.16;5040057;28;20061;-67
2022/04/17 08:25:02;;;;;;;5.38;4.10;;;;;;;9.55;47.68;102932.69;5046995;28;20110;-67
2022/04/17 08:27:28;;;;;;;4.97;3.92;;;;;;;9.64;47.79;102921.13;5042410;28;20124;-66
2022/04/17 08:29:53;;;;;;;5.45;4.22;;;;;;;9.76;47.71;102920.88;5044137;28;20068;-67
2022/04/17 08:32:19;;;;;;;6.78;4.30;;;;;;;9.81;47.31;102920.78;5042468;28;20028;-67
2022/04/17 08:34:45;;;;;;;6.18;4.07;;;;;;;9.80;47.39;102919.94;5039154;28;20035;-67
2022/04/17 08:37:10;;;;;;;7.75;4.30;;;;;;;9.83;47.33;102925.13;5043490;28;20474;-66
2022/04/17 08:39:35;;;;;;;5.90;3.50;;;;;;;9.88;46.76;102920.63;5044791;28;20033;-66
2022/04/17 08:42:04;;;;;;;5.03;4.07;;;;;;;10.01;46.10;102915.13;5043412;28;20087;-68
2022/04/17 08:44:29;;;;;;;4.47;3.63;;;;;;;10.05;45.82;102915.06;5043801;28;20534;-68
2022/04/17 08:46:55;;;;;;;8.43;4.70;;;;;;;10.05;45.81;102912.44;5042232;28;20041;-66
2022/04/17 08:49:23;;;;;;;5.47;3.75;;;;;;;10.15;45.54;102917.47;5039402;28;20079;-67
2022/04/17 08:51:49;;;;;;;5.82;4.22;;;;;;;10.20;45.15;102931.41;5041419;28;20041;-67
2022/04/17 08:54:16;;;;;;;4.82;3.60;;;;;;;10.21;45.02;102927.84;5035701;28;20047;-68
2022/04/17 08:56:41;;;;;;;5.00;4.07;;;;;;;10.20;44.92;102921.75;5043106;28;20056;-66
2022/04/17 08:59:07;;;;;;;7.22;4.05;;;;;;;10.18;45.41;102901.63;5044290;28;20588;-66
2022/04/17 09:01:41;;;;;;;5.10;4.03;;;;;;;10.23;45.78;102897.13;5044122;28;20041;-65
2022/04/17 09:04:07;;;;;;;7.28;5.32;;;;;;;10.31;46.04;102897.84;5039281;28;20040;-65
2022/04/17 09:06:35;;;;;;;6.40;4.90;;;;;;;10.37;46.01;102895.03;5044464;28;20044;-65
2022/04/17 09:09:05;;;;;;;5.95;3.88;;;;;;;10.43;46.11;102890.59;5041998;28;20482;-64
2022/04/17 09:11:33;;;;;;;4.72;4.00;;;;;;;10.49;45.79;102895.72;5042145;28;20048;-65
2022/04/17 09:14:01;;;;;;;4.38;3.65;;;;;;;10.47;45.44;102905.41;5043054;28;20400;-65
2022/04/17 09:16:38;;;;;;;6.32;4.20;;;;;;;10.46;46.13;102895.78;5043454;28;20033;-65
2022/04/17 09:19:15;;;;;;;7.68;6.05;;;;;;;10.52;46.10;102890.38;5040694;28;20037;-64
2022/04/17 09:21:41;;;;;;;4.85;4.35;;;;;;;10.57;45.95;102877.13;5041644;28;20087;-63
2022/04/17 09:24:20;;;;;;;5.15;4.35;;;;;;;10.61;45.94;102874.38;5042603;28;20058;-64
2022/04/17 09:27:07;;;;;;;7.93;4.70;;;;;;;10.61;46.15;102878.75;5043928;28;20036;-64
2022/04/17 09:29:37;;;;;;;6.40;4.63;;;;;;;10.62;46.28;102878.75;5042311;28;20444;-64
2022/04/17 09:32:04;;;;;;;6.97;5.00;;;;;;;10.65;46.39;102883.94;5038910;28;20041;-65
2022/04/17 09:34:49;;;;;;;6.47;5.00;;;;;;;10.67;46.46;102879.47;5026531;28;20037;-64
2022/04/17 09:37:19;;;;;;;5.18;4.43;;;;;;;10.72;46.33;102875.88;5043000;28;20072;-65
2022/04/17 09:39:45;;;;;;;;;;;;;;;10.72;46.39;102883.78;5039688;28;20067;-64
2022/04/17 09:42:11;;;;;;;5.93;4.40;;;;;;;10.73;46.45;102874.97;5041322;28;20311;-64
2022/04/17 09:44:47;;;;;;;4.43;4.03;;;;;;;10.79;46.39;102873.06;5038907;28;20041;-65
2022/04/17 09:47:20;;;;;;;10.18;5.32;;;;;;;10.80;46.57;102873.94;5045139;28;20393;-65
2022/04/17 09:50:08;;;;;;;7.53;4.95;;;;;;;10.89;46.17;102884.22;5043032;28;20663;-64
2022/04/17 09:52:48;;;;;;;7.38;5.35;;;;;;;10.89;46.44;102873.69;5043935;28;20922;-64
2022/04/17 09:55:25;;;;;;;7.82;5.10;;;;;;;10.91;46.22;102871.91;5042687;28;20045;-64
2022/04/17 09:57:56;;;;;;;7.43;5.00;;;;;;;11.04;46.08;102868.94;5041238;28;20022;-65
2022/04/17 10:00:23;;;;;;;6.60;4.78;;;;;;;11.09;45.74;102864.44;5042850;28;20037;-65
2022/04/17 10:02:49;;;;;;;6.00;4.50;;;;;;;11.15;45.29;102863.41;5032074;28;20025;-65
2022/04/17 10:05:19;;;;;;;6.10;4.57;;;;;;;11.19;44.47;102860.63;5044333;28;20029;-66
2022/04/17 10:07:46;;;;;;;;;;;;;;;11.26;44.37;102856.94;5043538;28;20034;-66
2022/04/17 10:10:13;;;;;;;8.10;5.28;;;;;;;11.38;44.41;102853.09;5041323;28;19913;-65
2022/04/17 10:12:40;;;;;;;5.95;4.82;;;;;;;11.49;44.45;102851.97;5040374;28;20041;-66
2022/04/17 10:15:07;;;;;;;;;;;;;;;11.51;44.31;102844.84;5040435;28;20035;-66
2022/04/17 10:17:33;;;;;;;;;;;;;;;11.58;44.42;102846.41;5040041;28;19909;-69
2022/04/17 10:20:08;;;;;;;;;;;;;;;11.59;44.65;102845.50;5044169;28;19982;-65
2022/04/17 10:22:34;;;;;;;;;;;;;;;11.66;44.67;102838.28;5013879;28;20411;-65
2022/04/17 10:25:02;;;;;;;;;;;;;;;11.72;44.69;102835.47;5040200;28;19924;-64
2022/04/17 10:27:30;;;;;;;;;;;;;;;11.77;44.36;102830.91;5043295;28;20435;-65
2022/04/17 10:30:15;;;;;;;;;;;;;;;11.82;44.35;102829.00;5043189;28;19953;-66
2022/04/17 10:32:50;;;;;;;;;;;;;;;11.88;44.20;102834.09;5038245;28;19924;-65
2022/04/17 10:35:15;;;;;;;;;;;;;;;11.91;43.81;102817.34;5042959;28;19916;-66
2022/04/17 10:38:05;;;;;;;;;;;;;;;11.97;44.29;102821.56;5037926;28;19955;-66
2022/04/17 10:40:31;;;;;;;;;;;;;;;12.07;44.23;102817.75;5040895;28;20345;-67
2022/04/17 10:42:57;;;;;;;;;;;;;;;12.12;44.14;102810.56;5041506;28;19916;-66
2022/04/17 10:45:22;;;;;;;;;;;;;;;12.13;43.78;102808.75;5040195;28;20369;-66
2022/04/17 10:48:07;;;;;;;;;;;;;;;12.12;44.14;102804.41;5035689;28;19917;-66
2022/04/17 10:50:42;;;;;;;;;;;;;;;12.18;44.04;102809.50;5037232;28;21013;-65
2022/04/17 10:53:27;;;;;;;;;;;;;;;12.21;43.93;102804.13;5043266;28;19987;-63
2022/04/17 10:56:03;;;;;;;;;;;;;;;12.22;42.87;102800.56;5036902;28;20019;-71
2022/04/17 10:58:34;;;;;;;;;;;;;;;12.19;41.75;102798.88;5042532;28;20737;-66
2022/04/17 11:00:59;;;;;;;;;;;;;;;12.20;41.72;102797.97;5029216;28;19920;-65
2022/04/17 11:03:26;;;;;;;;;;;;;;;12.20;41.16;102792.69;5035202;28;19940;-68
2022/04/17 11:06:09;;;;;;;;;;;;;;;12.29;41.46;102785.41;5041715;28;20001;-66
2022/04/17 11:08:52;;;;;;;;;;;;;;;12.34;41.08;102788.75;5036351;28;19917;-65
2022/04/17 11:11:18;;;;;;;;;;;;;;;12.41;41.72;102792.91;5039063;28;19913;-66
2022/04/17 11:14:02;;;;;;;;;;;;;;;12.49;41.72;102792.66;5021065;28;19920;-65
2022/04/17 11:16:27;;;;;;;;;;;;;;;12.53;41.57;102794.31;5036218;28;20421;-66
2022/04/17 11:18:53;;;;;;;;;;;;;;;12.59;41.28;102794.09;5037659;28;19921;-64
2022/04/17 11:21:22;;;;;;;;;;;;;;;12.61;41.00;102788.75;5041130;28;19920;-65
2022/04/17 11:23:48;;;;;;;;;;;;;;;12.60;41.20;102784.41;5036392;28;20296;-65
2022/04/17 11:26:13;;;;;;;;;;;;;;;12.62;41.42;102777.28;5040601;28;20380;-65
2022/04/17 11:28:38;;;;;;;;;;;;;;;12.65;41.40;102783.31;5038598;28;19925;-65
2022/04/17 11:31:04;;;;;;;;;;;;;;;12.63;41.10;102789.56;5020213;28;19930;-65
2022/04/17 11:33:29;;;;;;;;;;;;;;;12.55;41.56;102783.69;5035388;28;20171;-63
2022/04/17 11:35:56;;;;;;;;;;;;;;;12.53;41.26;102773.19;5042215;28;19917;-63
2022/04/17 11:38:21;;;;;;;;;;;;;;;12.49;40.84;102774.19;5042451;28;19917;-63
2022/04/17 11:40:48;;;;;;;;;;;;;;;12.47;41.22;102774.25;5040709;28;19917;-64
2022/04/17 11:43:17;;;;;;;;;;;;;;;12.42;41.14;102775.28;5041716;28;19935;-64
2022/04/17 11:45:44;;;;;;;;;;;;;;;12.41;41.30;102782.34;5041602;28;19916;-63
2022/04/17 11:48:13;;;;;;;;;;;;;;;12.43;41.46;102772.63;5038732;28;19916;-64
2022/04/17 11:50:39;;;;;;;;;;;;;;;12.45;41.74;102762.88;5027468;28;19921;-64
2022/04/17 11:53:14;;;;;;;;;;;;;;;12.52;41.92;102760.00;5040641;28;19912;-64
2022/04/17 11:55:41;;;;;;;;;;;;;;;12.60;41.38;102765.91;5040925;28;19921;-63